Time;durP1;ratioP1;P1;durP2;ratioP2;P2;SDS_P1;SDS_P2;PMS_P1;PMS_P2;Temp;Humidity;BMP_temperature;BMP_pressure;BME280_temperature;BME280_humidity;BME280_pressure;Samples;Min_cycle;Max_cycle;Signal;HPM_P1;HPM_P2
2021/06/18 00:00:09;;;;;;;9.00;7.60;;;;;;;25.78;47.45;101387.16;5071278;28;20213;-68
2021/06/18 00:02:34;;;;;;;9.80;7.40;;;;;;;25.74;47.66;101391.66;5073388;28;20228;-68
2021/06/18 00:04:59;;;;;;;7.97;7.23;;;;;;;25.72;47.50;101388.22;5072579;28;20212;-67
2021/06/18 00:07:24;;;;;;;8.07;7.23;;;;;;;25.69;47.44;101390.09;5072514;28;20185;-68
2021/06/18 00:09:50;;;;;;;7.70;7.00;;;;;;;25.66;47.49;101390.19;5072260;28;20205;-67
2021/06/18 00:12:15;;;;;;;7.70;7.00;;;;;;;25.65;47.27;101391.13;5072628;28;20557;-68
2021/06/18 00:14:40;;;;;;;9.90;7.37;;;;;;;25.64;47.55;101389.41;5072434;28;20192;-68
2021/06/18 00:17:06;;;;;;;8.20;7.40;;;;;;;25.64;47.54;101392.03;5072746;28;20185;-68
2021/06/18 00:19:31;;;;;;;9.73;7.60;;;;;;;25.64;47.82;101386.78;5072029;28;20584;-68
2021/06/18 00:21:57;;;;;;;10.37;7.57;;;;;;;25.63;47.72;101385.91;5071162;28;20217;-67
2021/06/18 00:24:22;;;;;;;8.07;7.43;;;;;;;25.60;48.21;101391.25;5072279;28;20192;-67
2021/06/18 00:26:47;;;;;;;8.87;7.47;;;;;;;25.57;48.41;101396.63;5072460;28;20188;-68
2021/06/18 00:29:12;;;;;;;9.00;7.73;;;;;;;25.56;47.96;101401.91;5071788;28;20181;-68
2021/06/18 00:31:38;;;;;;;11.33;7.33;;;;;;;25.56;48.00;101402.75;5072398;28;20589;-67
2021/06/18 00:34:03;;;;;;;8.27;7.53;;;;;;;25.56;48.63;101399.28;5072392;28;20181;-68
2021/06/18 00:36:28;;;;;;;8.97;7.70;;;;;;;25.55;48.19;101397.59;5071913;28;20177;-68
2021/06/18 00:38:54;;;;;;;9.73;8.10;;;;;;;25.54;48.63;101399.34;5071819;28;20181;-67
2021/06/18 00:41:19;;;;;;;10.73;7.90;;;;;;;25.51;48.44;101402.06;5071959;28;20205;-67
2021/06/18 00:43:44;;;;;;;8.53;7.60;;;;;;;25.48;48.72;101401.31;5070537;28;20184;-67
2021/06/18 00:46:12;;;;;;;8.43;7.73;;;;;;;25.46;48.79;101396.09;5071567;28;20181;-67
2021/06/18 00:48:37;;;;;;;8.97;8.07;;;;;;;25.45;48.98;101391.78;5071922;28;20204;-68
2021/06/18 00:51:03;;;;;;;8.17;7.47;;;;;;;25.45;48.73;101399.63;5071803;28;20618;-68
2021/06/18 00:53:29;;;;;;;8.73;7.77;;;;;;;25.43;48.85;101390.09;5071700;28;20176;-66
2021/06/18 00:55:54;;;;;;;10.17;7.57;;;;;;;25.42;49.10;101391.03;5070987;28;20196;-67
2021/06/18 00:58:20;;;;;;;8.27;7.50;;;;;;;25.40;48.91;101395.44;5070929;28;20209;-67
2021/06/18 01:00:46;;;;;;;8.50;7.63;;;;;;;25.37;49.09;101390.31;5071389;28;20255;-68
2021/06/18 01:03:12;;;;;;;10.30;7.70;;;;;;;25.34;48.93;101388.66;5071589;28;20173;-68
2021/06/18 01:05:39;;;;;;;9.33;7.43;;;;;;;25.32;48.86;101385.19;5086815;28;20699;-68
2021/06/18 01:08:09;;;;;;;9.97;8.17;;;;;;;25.31;48.81;101382.63;5071733;28;20227;-68
2021/06/18 01:10:45;;;;;;;8.30;7.50;;;;;;;25.29;48.83;101379.19;5051529;28;20204;-68
2021/06/18 01:13:45;;;;;;;10.37;7.80;;;;;;;25.28;49.13;101382.75;5052215;28;20261;-68
2021/06/18 01:16:28;;;;;;;9.57;7.60;;;;;;;25.23;49.38;101380.22;5087200;28;20177;-68
2021/06/18 01:19:01;;;;;;;8.40;7.60;;;;;;;25.25;49.29;101370.56;5082929;22;20173;-68
2021/06/18 01:21:31;;;;;;;8.33;7.63;;;;;;;25.26;49.38;101377.53;5030352;28;20267;-70
2021/06/18 01:24:24;;;;;;;10.03;8.77;;;;;;;25.21;49.41;101365.44;5014219;28;20531;-70
2021/06/18 01:27:15;;;;;;;8.80;7.60;;;;;;;25.15;49.41;101365.63;5031769;28;20189;-70
2021/06/18 01:29:49;;;;;;;9.27;8.37;;;;;;;25.10;49.62;101363.16;5009778;28;20253;-70
2021/06/18 01:32:20;;;;;;;10.57;8.03;;;;;;;25.13;49.67;101367.44;5011505;28;20219;-69
2021/06/18 01:34:46;;;;;;;10.23;8.33;;;;;;;25.12;49.49;101363.09;5025063;28;20655;-69
2021/06/18 01:37:16;;;;;;;7.87;7.10;;;;;;;25.09;49.75;101356.19;5031385;28;20182;-70
2021/06/18 01:39:44;;;;;;;8.53;7.50;;;;;;;25.08;49.68;101351.88;5018477;28;20206;-70
2021/06/18 01:42:11;;;;;;;8.50;7.40;;;;;;;25.06;49.86;101350.19;5024492;28;20195;-70
2021/06/18 01:44:39;;;;;;;7.83;7.03;;;;;;;25.03;49.50;101358.16;5011643;28;20206;-70
2021/06/18 01:47:07;;;;;;;8.50;7.70;;;;;;;25.00;49.82;101346.00;5013416;28;20179;-70
2021/06/18 01:49:36;;;;;;;9.97;7.80;;;;;;;24.98;49.74;101347.81;5026275;28;20284;-70
2021/06/18 01:52:04;;;;;;;9.50;7.70;;;;;;;24.96;49.95;101341.75;5016406;28;20175;-70
2021/06/18 01:54:31;;;;;;;9.00;8.10;;;;;;;24.94;50.02;101340.97;5022056;28;20232;-70
2021/06/18 01:56:59;;;;;;;11.73;8.10;;;;;;;24.95;50.17;101342.66;5031165;28;20186;-69
2021/06/18 01:59:28;;;;;;;8.73;7.90;;;;;;;24.96;50.31;101339.13;5027453;28;20297;-69
2021/06/18 02:01:53;;;;;;;8.43;7.63;;;;;;;24.96;50.25;101335.69;5030315;28;20198;-69
2021/06/18 02:04:19;;;;;;;8.30;7.60;;;;;;;24.92;50.16;101337.53;5028888;28;20182;-70
2021/06/18 02:06:48;;;;;;;8.50;7.53;;;;;;;24.88;50.16;101330.69;5030974;28;20190;-69
2021/06/18 02:09:15;;;;;;;10.27;8.30;;;;;;;24.82;50.33;101320.38;5030221;28;20567;-69
2021/06/18 02:11:42;;;;;;;9.10;8.07;;;;;;;24.79;50.23;101325.72;5030538;28;20737;-69
2021/06/18 02:14:10;;;;;;;8.13;7.33;;;;;;;24.78;50.25;101328.38;5028769;28;20178;-70
2021/06/18 02:16:41;;;;;;;9.00;8.10;;;;;;;24.77;50.29;101327.50;5028374;28;20182;-69
2021/06/18 02:19:07;;;;;;;8.50;7.67;;;;;;;24.77;49.98;101335.38;5030119;28;20392;-70
2021/06/18 02:21:33;;;;;;;9.17;8.13;;;;;;;24.75;50.09;101337.19;5030263;28;20206;-70
2021/06/18 02:24:00;;;;;;;9.80;7.67;;;;;;;24.72;50.06;101333.81;5030674;28;20265;-70
2021/06/18 02:26:26;;;;;;;8.80;7.90;;;;;;;24.72;49.94;101329.41;5030553;28;20182;-69
2021/06/18 02:28:53;;;;;;;8.40;7.60;;;;;;;24.69;50.25;101328.66;5030710;28;20689;-69
2021/06/18 02:31:20;;;;;;;8.57;7.77;;;;;;;24.70;50.22;101335.63;5030946;28;20190;-69
2021/06/18 02:33:46;;;;;;;8.20;7.50;;;;;;;24.68;50.04;101338.28;5025046;28;20640;-69
2021/06/18 02:36:12;;;;;;;8.73;7.80;;;;;;;24.67;50.24;101335.72;5024115;28;20214;-69
2021/06/18 02:38:38;;;;;;;9.43;7.80;;;;;;;24.63;50.34;101334.94;5028268;28;20270;-69
2021/06/18 02:41:03;;;;;;;10.33;8.00;;;;;;;24.60;50.49;101335.06;5030072;28;20289;-69
2021/06/18 02:43:28;;;;;;;8.13;7.33;;;;;;;24.63;50.21;101336.72;5029757;28;20174;-69
2021/06/18 02:45:54;;;;;;;8.33;7.43;;;;;;;24.59;50.25;101338.53;5030442;28;20186;-69
2021/06/18 02:48:27;;;;;;;7.90;7.20;;;;;;;24.57;50.36;101336.84;5029679;28;20186;-70
2021/06/18 02:51:02;;;;;;;7.97;7.17;;;;;;;24.52;50.40;101342.25;5010442;28;20198;-69
2021/06/18 02:53:46;;;;;;;8.20;7.40;;;;;;;24.51;50.20;101342.28;5029676;28;20273;-69
2021/06/18 02:56:28;;;;;;;8.60;7.80;;;;;;;24.51;50.21;101337.03;5030230;28;20179;-70
2021/06/18 02:58:59;;;;;;;8.07;7.30;;;;;;;24.50;50.08;101332.72;5029500;28;20191;-69
2021/06/18 03:01:27;;;;;;;8.50;7.63;;;;;;;24.51;50.45;101329.19;5030053;28;20198;-69
2021/06/18 03:03:56;;;;;;;8.90;8.03;;;;;;;24.48;50.16;101330.13;5018094;28;20571;-69
2021/06/18 03:06:23;;;;;;;8.30;7.57;;;;;;;24.45;50.33;101343.31;5029648;28;20198;-70
2021/06/18 03:09:00;;;;;;;11.37;8.63;;;;;;;24.45;50.28;101343.31;5029169;28;20190;-70
2021/06/18 03:11:31;;;;;;;8.87;8.03;;;;;;;24.47;50.33;101338.91;5028841;28;20178;-70
2021/06/18 03:13:58;;;;;;;9.53;7.90;;;;;;;24.47;50.50;101351.13;5029455;28;20178;-70
2021/06/18 03:16:26;;;;;;;8.50;7.60;;;;;;;24.44;50.43;101348.63;5029444;28;20536;-69
2021/06/18 03:18:53;;;;;;;10.27;7.93;;;;;;;24.45;50.32;101355.56;5011178;28;20283;-69
2021/06/18 03:21:19;;;;;;;9.80;8.23;;;;;;;24.45;50.51;101352.94;5012032;28;20214;-70
2021/06/18 03:23:48;;;;;;;11.07;8.47;;;;;;;24.43;50.46;101350.38;5011701;28;20607;-70
2021/06/18 03:26:14;;;;;;;9.50;8.50;;;;;;;24.40;50.82;101354.84;5029406;28;20187;-69
2021/06/18 03:28:40;;;;;;;9.93;8.07;;;;;;;24.40;50.46;101355.69;5012455;28;20214;-69
2021/06/18 03:31:08;;;;;;;9.90;8.90;;;;;;;24.41;50.76;101352.16;5013327;28;20667;-69
2021/06/18 03:33:34;;;;;;;11.00;8.77;;;;;;;24.40;50.83;101345.19;5011593;28;20557;-69
2021/06/18 03:36:00;;;;;;;9.27;8.37;;;;;;;24.40;50.70;101350.44;5021488;28;20210;-69
2021/06/18 03:38:26;;;;;;;10.53;9.10;;;;;;;24.38;50.80;101354.00;5010494;28;20608;-70
2021/06/18 03:40:52;;;;;;;9.03;8.13;;;;;;;24.34;50.87;101360.22;5032207;28;20682;-69
2021/06/18 03:43:17;;;;;;;10.23;9.00;;;;;;;24.31;51.14;101357.72;5050039;28;20182;-70
2021/06/18 03:45:44;;;;;;;11.17;9.10;;;;;;;24.31;50.91;101365.56;5034001;28;20194;-70
2021/06/18 03:48:15;;;;;;;11.20;9.50;;;;;;;24.30;50.94;101353.38;5017450;28;20411;-69
2021/06/18 03:50:41;;;;;;;10.47;9.20;;;;;;;24.29;51.20;101355.16;5028673;28;20201;-70
2021/06/18 03:53:10;;;;;;;12.10;9.67;;;;;;;24.30;51.10;101359.47;5028568;28;20190;-70
2021/06/18 03:55:36;;;;;;;10.77;9.40;;;;;;;24.30;51.06;101354.22;5021915;28;20183;-70
2021/06/18 03:58:04;;;;;;;10.33;9.20;;;;;;;24.30;51.35;101350.75;5022776;28;20186;-70
2021/06/18 04:00:36;;;;;;;13.10;9.50;;;;;;;24.26;51.42;101359.63;5027735;28;20285;-69
2021/06/18 04:03:03;;;;;;;11.00;9.20;;;;;;;24.27;51.15;101358.72;5009666;28;20183;-69
2021/06/18 04:05:30;;;;;;;10.40;9.23;;;;;;;24.30;51.04;101350.75;5009927;28;20175;-69
2021/06/18 04:07:57;;;;;;;12.33;9.67;;;;;;;24.30;51.15;101351.63;5009911;28;20792;-69
2021/06/18 04:10:23;;;;;;;11.37;9.47;;;;;;;24.31;51.19;101355.94;5009491;28;20203;-69
2021/06/18 04:12:51;;;;;;;10.63;9.63;;;;;;;24.29;51.23;101357.75;5012262;28;20186;-70
2021/06/18 04:15:21;;;;;;;13.33;9.73;;;;;;;24.28;51.18;101361.28;5029470;28;20174;-70
2021/06/18 04:17:47;;;;;;;11.03;9.87;;;;;;;24.32;51.17;101359.44;5029332;28;20182;-69
2021/06/18 04:20:13;;;;;;;11.80;9.60;;;;;;;24.32;51.04;101355.06;5030057;28;20213;-69
2021/06/18 04:22:39;;;;;;;10.50;9.50;;;;;;;24.34;50.60;101347.13;5014710;28;20301;-69
2021/06/18 04:25:05;;;;;;;10.73;9.67;;;;;;;24.35;51.08;101360.19;5032143;28;20274;-69
2021/06/18 04:27:32;;;;;;;10.80;9.70;;;;;;;24.34;50.89;101363.72;5032964;28;20225;-68
2021/06/18 04:29:57;;;;;;;14.13;10.17;;;;;;;24.35;50.70;101360.19;5031078;28;20210;-69
2021/06/18 04:32:23;;;;;;;14.97;10.80;;;;;;;24.38;51.02;101367.09;5032884;28;20181;-69
2021/06/18 04:34:48;;;;;;;10.80;9.70;;;;;;;24.40;50.62;101358.31;5031469;28;20186;-70
2021/06/18 04:37:14;;;;;;;11.03;9.73;;;;;;;24.40;50.59;101360.91;5014801;28;20217;-69
2021/06/18 04:39:39;;;;;;;11.10;10.00;;;;;;;24.41;50.35;101348.69;5017318;28;20210;-69
2021/06/18 04:42:05;;;;;;;11.63;9.90;;;;;;;24.39;50.29;101347.88;5031566;28;20675;-69
2021/06/18 04:44:30;;;;;;;10.93;9.73;;;;;;;24.39;50.36;101353.97;5032858;28;20186;-70
2021/06/18 04:46:55;;;;;;;11.17;9.30;;;;;;;24.39;50.20;101363.56;5032497;28;20204;-69
2021/06/18 04:49:21;;;;;;;11.90;10.17;;;;;;;24.40;50.00;101355.69;5029860;28;20695;-69
2021/06/18 04:51:46;;;;;;;11.23;9.73;;;;;;;24.39;50.22;101353.97;5028048;28;20278;-69
2021/06/18 04:54:11;;;;;;;11.07;9.97;;;;;;;24.40;50.08;101354.84;5012860;28;20190;-69
2021/06/18 04:56:38;;;;;;;12.27;10.13;;;;;;;24.39;50.32;101359.22;5031008;28;20193;-68
2021/06/18 04:59:04;;;;;;;10.40;9.40;;;;;;;24.40;50.39;101349.59;5030777;28;20268;-69
2021/06/18 05:01:29;;;;;;;12.60;10.23;;;;;;;24.41;50.23;101346.91;5032163;28;20281;-69
2021/06/18 05:03:54;;;;;;;11.70;10.50;;;;;;;24.41;50.47;101344.28;5030892;28;20174;-70
2021/06/18 05:06:20;;;;;;;11.77;10.40;;;;;;;24.43;50.11;101344.25;5032280;28;20248;-68
2021/06/18 05:08:45;;;;;;;11.77;10.50;;;;;;;24.44;50.73;101354.69;5032020;28;20214;-69
2021/06/18 05:11:10;;;;;;;11.20;10.17;;;;;;;24.42;50.95;101351.28;5030708;28;20213;-69
2021/06/18 05:13:35;;;;;;;11.43;10.07;;;;;;;24.45;51.02;101356.41;5032225;28;20186;-69
2021/06/18 05:16:01;;;;;;;11.33;10.33;;;;;;;24.47;51.12;101348.50;5031988;28;20182;-69
2021/06/18 05:18:26;;;;;;;11.20;10.10;;;;;;;24.47;51.01;101344.13;5031896;28;20190;-69
2021/06/18 05:20:52;;;;;;;10.87;9.77;;;;;;;24.49;51.01;101346.72;5030258;28;20221;-69
2021/06/18 05:23:18;;;;;;;11.77;10.50;;;;;;;24.49;51.12;101349.34;5031855;28;20600;-69
2021/06/18 05:25:43;;;;;;;11.13;9.80;;;;;;;24.51;51.00;101360.63;5031802;28;20182;-69
2021/06/18 05:28:08;;;;;;;11.23;10.23;;;;;;;24.52;51.19;101357.09;5031740;28;20182;-69
2021/06/18 05:30:33;;;;;;;12.13;10.53;;;;;;;24.55;50.98;101364.88;5022831;28;20273;-70
2021/06/18 05:32:59;;;;;;;11.67;10.10;;;;;;;24.59;51.64;101369.13;5010919;28;20294;-69
2021/06/18 05:35:24;;;;;;;16.50;10.67;;;;;;;24.61;51.50;101373.44;5013427;28;20237;-69
2021/06/18 05:37:51;;;;;;;14.77;11.10;;;;;;;24.62;51.65;101372.53;5028620;28;20175;-69
2021/06/18 05:40:16;;;;;;;13.87;10.37;;;;;;;24.64;51.56;101375.94;5024875;28;20272;-69
2021/06/18 05:42:41;;;;;;;12.10;10.87;;;;;;;24.66;51.08;101382.03;5015918;28;20687;-69
2021/06/18 05:45:07;;;;;;;11.47;10.07;;;;;;;24.67;51.64;101377.66;5015294;28;20498;-69
2021/06/18 05:47:32;;;;;;;12.40;10.23;;;;;;;24.68;51.48;101380.19;5012574;28;20198;-70
2021/06/18 05:49:58;;;;;;;11.13;9.90;;;;;;;24.68;51.22;101374.97;5017594;28;20226;-69
2021/06/18 05:52:23;;;;;;;13.43;10.83;;;;;;;24.70;51.47;101378.41;5024828;28;20183;-69
2021/06/18 05:54:48;;;;;;;11.20;10.07;;;;;;;24.71;51.60;101384.50;5017066;28;20190;-70
2021/06/18 05:57:14;;;;;;;12.90;10.07;;;;;;;24.74;51.29;101387.03;5035721;28;20190;-69
2021/06/18 05:59:39;;;;;;;19.83;9.60;;;;;;;24.76;50.86;101387.81;5011529;28;20207;-68
2021/06/18 06:02:04;;;;;;;10.77;9.77;;;;;;;24.77;50.75;101382.53;5015829;28;20583;-69
2021/06/18 06:04:29;;;;;;;11.93;9.60;;;;;;;24.80;50.54;101381.59;5020722;28;20273;-70
2021/06/18 06:06:55;;;;;;;10.87;9.83;;;;;;;24.82;50.39;101382.41;5015247;28;20211;-70
2021/06/18 06:09:20;;;;;;;10.57;9.47;;;;;;;24.83;50.39;101385.00;5011157;28;20199;-69
2021/06/18 06:11:45;;;;;;;11.40;10.20;;;;;;;24.85;50.13;101383.19;5027329;28;20259;-69
2021/06/18 06:14:17;;;;;;;10.40;9.33;;;;;;;24.86;50.29;101384.88;5024157;28;20183;-70
2021/06/18 06:16:43;;;;;;;11.27;9.80;;;;;;;24.87;50.13;101386.59;5026627;28;20559;-69
2021/06/18 06:19:08;;;;;;;11.37;9.57;;;;;;;24.89;50.04;101382.19;5008064;28;20272;-70
2021/06/18 06:21:34;;;;;;;9.47;8.67;;;;;;;24.90;49.64;101378.66;5028936;28;20663;-69
2021/06/18 06:23:59;;;;;;;10.00;9.00;;;;;;;24.91;49.56;101376.91;5027582;28;20182;-69
2021/06/18 06:26:25;;;;;;;9.90;8.87;;;;;;;24.92;49.64;101381.22;5030715;28;20269;-69
2021/06/18 06:28:50;;;;;;;10.10;9.30;;;;;;;24.93;49.79;101378.56;5015236;28;20198;-68
2021/06/18 06:31:16;;;;;;;10.77;9.43;;;;;;;24.94;49.74;101382.91;5014997;28;20652;-69
2021/06/18 06:33:41;;;;;;;10.00;8.87;;;;;;;24.95;49.27;101383.78;5028218;28;20257;-70
2021/06/18 06:36:06;;;;;;;11.13;9.80;;;;;;;24.97;49.27;101389.81;5030680;28;20183;-68
2021/06/18 06:38:32;;;;;;;9.90;8.90;;;;;;;24.98;49.39;101383.66;5030417;28;20174;-69
2021/06/18 06:40:57;;;;;;;12.23;8.60;;;;;;;25.00;49.05;101385.31;5018186;28;20253;-69
2021/06/18 06:43:23;;;;;;;13.93;8.73;;;;;;;25.02;49.42;101391.41;5009959;28;20186;-69
2021/06/18 06:45:49;;;;;;;11.57;8.13;;;;;;;25.16;49.13;101386.56;5014672;28;20194;-69
2021/06/18 06:48:15;;;;;;;13.70;9.20;;;;;;;25.20;48.77;101390.81;5010413;28;20198;-71
2021/06/18 06:50:40;;;;;;;13.27;8.60;;;;;;;25.12;48.47;101392.81;5025430;28;20210;-71
2021/06/18 06:53:07;;;;;;;10.97;9.30;;;;;;;25.00;48.56;101397.59;5028854;28;20182;-69
2021/06/18 06:55:33;;;;;;;11.90;8.70;;;;;;;24.96;49.16;101398.59;5026527;28;20178;-68
2021/06/18 06:57:58;;;;;;;10.93;8.40;;;;;;;25.02;49.84;101401.00;5020076;28;20190;-69
2021/06/18 07:00:24;;;;;;;10.80;8.77;;;;;;;25.01;50.44;101394.91;5023987;28;20282;-68
2021/06/18 07:02:49;;;;;;;11.93;8.63;;;;;;;24.98;49.71;101397.63;5029061;28;20609;-68
2021/06/18 07:05:14;;;;;;;11.83;9.00;;;;;;;25.00;49.85;101398.44;5025524;28;20278;-68
2021/06/18 07:07:40;;;;;;;11.20;8.40;;;;;;;25.10;50.18;101394.63;5010695;28;20179;-69
2021/06/18 07:10:06;;;;;;;9.27;8.30;;;;;;;25.16;49.89;101391.81;4994938;28;20206;-68
2021/06/18 07:12:32;;;;;;;10.73;8.83;;;;;;;25.25;50.24;101394.16;5001481;28;20229;-66
2021/06/18 07:14:58;;;;;;;8.77;8.00;;;;;;;25.33;50.01;101397.41;5025153;28;20191;-66
2021/06/18 07:17:24;;;;;;;9.10;7.93;;;;;;;25.37;50.07;101395.56;5018709;28;20179;-66
2021/06/18 07:19:50;;;;;;;11.03;8.70;;;;;;;25.37;49.85;101395.56;5027104;28;20228;-66
2021/06/18 07:22:18;;;;;;;9.53;8.53;;;;;;;25.38;49.58;101399.88;5011921;28;20223;-69
2021/06/18 07:24:44;;;;;;;9.07;8.10;;;;;;;25.38;49.86;101400.75;5029349;28;20186;-70
2021/06/18 07:27:09;;;;;;;9.20;8.20;;;;;;;25.42;50.21;101404.97;5026443;28;20178;-68
2021/06/18 07:29:34;;;;;;;8.63;7.93;;;;;;;25.46;49.72;101400.50;5019139;28;20194;-69
2021/06/18 07:32:00;;;;;;;9.10;8.20;;;;;;;25.48;49.95;101396.94;5018663;28;20187;-69
2021/06/18 07:34:25;;;;;;;10.50;8.50;;;;;;;25.47;49.87;101391.72;5010164;28;20182;-69
2021/06/18 07:36:51;;;;;;;9.33;8.33;;;;;;;25.49;49.92;101401.25;5010210;28;20194;-69
2021/06/18 07:39:16;;;;;;;9.33;8.47;;;;;;;25.49;49.74;101388.13;5010109;28;20850;-69
2021/06/18 07:41:41;;;;;;;9.63;8.10;;;;;;;25.51;49.75;101391.56;5009766;28;20205;-68
2021/06/18 07:44:06;;;;;;;13.17;8.57;;;;;;;25.55;49.52;101392.34;5009821;28;20321;-71
2021/06/18 07:46:32;;;;;;;9.20;8.40;;;;;;;25.61;49.34;101386.88;5018445;28;20186;-73
2021/06/18 07:48:57;;;;;;;9.53;8.63;;;;;;;25.65;49.70;101385.88;5029777;28;20592;-75
2021/06/18 07:51:22;;;;;;;9.17;8.27;;;;;;;25.64;49.15;101384.16;5028236;28;20186;-72
2021/06/18 07:53:48;;;;;;;9.00;8.10;;;;;;;25.63;49.39;101385.91;5031030;28;20193;-73
2021/06/18 07:56:13;;;;;;;9.10;8.27;;;;;;;25.65;48.94;101378.84;5030211;28;20178;-74
2021/06/18 07:58:39;;;;;;;8.80;7.93;;;;;;;25.70;48.93;101384.78;5033588;28;20262;-73
2021/06/18 08:01:05;;;;;;;9.57;7.53;;;;;;;25.71;48.73;101376.03;5026316;28;20269;-74
2021/06/18 08:03:30;;;;;;;11.97;8.30;;;;;;;25.73;49.12;101378.56;5031138;28;20232;-75
2021/06/18 08:05:55;;;;;;;9.67;8.77;;;;;;;25.75;49.10;101375.00;5037872;28;20185;-74
2021/06/18 08:08:21;;;;;;;8.80;8.10;;;;;;;25.72;48.99;101369.84;5041782;28;20193;-74
2021/06/18 08:10:46;;;;;;;9.25;8.35;;;;;;;25.73;49.07;101366.31;5016298;28;20269;-71
2021/06/18 08:13:11;;;;;;;8.88;8.02;;;;;;;25.75;48.90;101367.13;5013598;28;20241;-70
2021/06/18 08:15:37;;;;;;;9.52;8.73;;;;;;;25.76;48.59;101363.59;5033363;28;20686;-69
2021/06/18 08:18:02;;;;;;;9.37;8.50;;;;;;;25.81;48.52;101368.66;5033324;28;20182;-69
2021/06/18 08:20:27;;;;;;;9.13;8.33;;;;;;;25.83;48.66;101372.97;5025904;28;20426;-69
2021/06/18 08:22:57;;;;;;;9.63;8.73;;;;;;;25.88;49.09;101371.03;5018582;28;20199;-70
2021/06/18 08:25:23;;;;;;;8.87;7.97;;;;;;;25.89;48.34;101367.50;5031630;28;20563;-71
2021/06/18 08:27:48;;;;;;;9.13;8.35;;;;;;;25.89;48.73;101367.50;5020776;28;20187;-70
2021/06/18 08:30:15;;;;;;;8.90;8.10;;;;;;;25.89;48.70;101367.50;5014308;28;20641;-70
2021/06/18 08:32:41;;;;;;;9.60;8.20;;;;;;;25.91;49.17;101368.31;5013411;28;20194;-71
2021/06/18 08:35:06;;;;;;;9.70;8.77;;;;;;;25.94;48.68;101360.38;5013425;28;20648;-70
2021/06/18 08:37:32;;;;;;;9.07;8.18;;;;;;;25.96;48.82;101355.91;5011950;28;20179;-70
2021/06/18 08:39:57;;;;;;;8.67;7.93;;;;;;;25.96;48.88;101358.53;5013447;28;20218;-70
2021/06/18 08:42:23;;;;;;;9.70;8.70;;;;;;;25.97;48.62;101354.97;5024789;28;20197;-70
2021/06/18 08:44:49;;;;;;;10.07;8.67;;;;;;;25.99;48.51;101349.69;5021883;28;20198;-69
2021/06/18 08:47:14;;;;;;;10.65;8.23;;;;;;;25.98;48.24;101346.22;5013234;28;20179;-69
2021/06/18 08:49:40;;;;;;;12.88;8.75;;;;;;;26.02;48.49;101345.16;5024842;28;20689;-70
2021/06/18 08:52:06;;;;;;;9.23;8.43;;;;;;;26.05;48.54;101347.69;5033077;28;20220;-68
2021/06/18 08:54:41;;;;;;;9.80;8.88;;;;;;;26.07;48.22;101351.09;5032791;28;20228;-68
2021/06/18 08:57:15;;;;;;;9.80;8.27;;;;;;;26.10;48.58;101347.56;5032808;28;20220;-68
2021/06/18 08:59:42;;;;;;;8.80;8.00;;;;;;;26.10;48.89;101343.13;5032128;28;20621;-67
2021/06/18 09:02:09;;;;;;;10.75;9.05;;;;;;;26.12;48.70;101338.69;5001837;28;20199;-68
2021/06/18 09:05:08;;;;;;;9.10;8.23;;;;;;;26.14;48.34;101346.50;5013186;28;20770;-67
2021/06/18 09:08:00;;;;;;;8.73;8.02;;;;;;;26.14;48.74;101346.50;5010831;28;20221;-68
2021/06/18 09:10:31;;;;;;;9.27;8.48;;;;;;;26.14;48.48;101343.88;5020052;28;20214;-68
2021/06/18 09:13:30;;;;;;;9.65;8.85;;;;;;;26.16;48.30;101344.69;5011645;28;20177;-67
2021/06/18 09:15:57;;;;;;;10.50;8.55;;;;;;;26.17;48.44;101342.00;5031251;28;20182;-67
2021/06/18 09:18:33;;;;;;;10.43;9.23;;;;;;;26.18;48.21;101340.22;5031995;28;20207;-69
2021/06/18 09:21:02;;;;;;;9.20;8.40;;;;;;;26.19;48.07;101331.44;5031861;28;20209;-67
2021/06/18 09:23:33;;;;;;;9.00;8.13;;;;;;;26.20;48.04;101338.41;5018637;28;20183;-67
2021/06/18 09:26:22;;;;;;;9.85;8.95;;;;;;;26.21;48.27;101343.63;4995112;28;20229;-68
2021/06/18 09:29:00;;;;;;;9.13;8.27;;;;;;;26.21;48.27;101341.00;5012163;28;20690;-67
2021/06/18 09:31:28;;;;;;;9.32;8.43;;;;;;;26.21;48.26;101345.38;5026878;28;20265;-68
2021/06/18 09:33:53;;;;;;;8.95;8.15;;;;;;;26.20;48.20;101341.03;5031002;28;20182;-68
2021/06/18 09:36:19;;;;;;;9.60;8.70;;;;;;;26.21;47.82;101335.75;5031364;28;20244;-67
2021/06/18 09:38:50;;;;;;;9.10;8.30;;;;;;;26.23;47.75;101331.28;5013616;28;20171;-67
2021/06/18 09:41:35;;;;;;;8.65;7.78;;;;;;;26.28;47.58;101334.59;5023199;28;20214;-69
2021/06/18 09:44:04;;;;;;;8.70;8.00;;;;;;;26.34;48.07;101330.88;5011904;28;20648;-68
2021/06/18 09:46:46;;;;;;;8.52;7.82;;;;;;;25.94;46.88;101328.84;5012460;28;20178;-68
2021/06/18 09:49:30;;;;;;;9.07;8.17;;;;;;;25.75;48.80;101326.91;5017044;28;20198;-69
2021/06/18 09:52:11;;;;;;;8.97;8.27;;;;;;;25.67;49.53;101328.91;5031859;28;20171;-69
2021/06/18 09:54:42;;;;;;;8.80;7.57;;;;;;;25.68;50.04;101323.63;5031883;28;20257;-71
2021/06/18 09:57:16;;;;;;;8.63;7.93;;;;;;;25.62;49.79;101317.72;5032677;28;20171;-70
2021/06/18 09:59:50;;;;;;;8.77;7.90;;;;;;;25.63;50.30;101315.06;5031059;28;20676;-71
2021/06/18 10:02:17;;;;;;;8.40;7.63;;;;;;;25.67;50.77;101318.41;5014226;28;20361;-71
2021/06/18 10:04:44;;;;;;;8.97;8.10;;;;;;;25.66;51.67;101316.72;5030071;28;21025;-71
2021/06/18 10:07:10;;;;;;;14.37;7.97;;;;;;;25.76;50.68;101311.09;5030884;28;20190;-71
2021/06/18 10:09:37;;;;;;;11.47;8.00;;;;;;;25.81;50.77;101316.16;5031132;28;20209;-72
2021/06/18 10:12:03;;;;;;;8.77;7.97;;;;;;;25.88;50.21;101315.06;5031642;28;20539;-72
2021/06/18 10:14:29;;;;;;;8.63;7.78;;;;;;;26.09;49.15;101316.91;4997396;28;20227;-72
2021/06/18 10:16:54;;;;;;;9.17;8.10;;;;;;;26.14;48.65;101310.59;4998099;28;20674;-70
2021/06/18 10:19:20;;;;;;;8.47;7.77;;;;;;;26.24;49.05;101314.59;5010572;28;20289;-72
2021/06/18 10:21:54;;;;;;;8.00;7.30;;;;;;;26.32;48.08;101315.16;5013474;28;20219;-71
2021/06/18 10:24:25;;;;;;;14.25;8.35;;;;;;;26.45;47.53;101307.66;5013070;28;20179;-72
2021/06/18 10:26:52;;;;;;;14.85;7.95;;;;;;;26.58;47.83;101312.44;5011093;28;20218;-74
2021/06/18 10:29:39;;;;;;;11.82;8.73;;;;;;;26.80;47.21;101305.41;5011086;28;20269;-72
2021/06/18 10:32:33;;;;;;;9.48;8.38;;;;;;;26.91;46.69;101303.22;5004589;28;20175;-72
2021/06/18 10:35:00;;;;;;;12.77;9.30;;;;;;;27.00;46.87;101292.34;4991389;28;20183;-71
2021/06/18 10:37:28;;;;;;;11.02;8.88;;;;;;;26.99;46.93;101295.03;4974362;28;20207;-71
2021/06/18 10:40:04;;;;;;;11.95;9.23;;;;;;;26.98;46.55;101290.69;4990615;28;20259;-75
2021/06/18 10:42:30;;;;;;;10.20;9.32;;;;;;;26.97;46.97;101281.06;4993156;28;20684;-72
2021/06/18 10:44:55;;;;;;;10.25;9.35;;;;;;;26.96;46.69;101280.22;4992028;28;20180;-74
2021/06/18 10:47:23;;;;;;;9.93;8.70;;;;;;;26.99;47.27;101280.06;4991861;28;20172;-72
2021/06/18 10:49:53;;;;;;;10.13;9.18;;;;;;;27.02;47.05;101274.72;4992068;28;20198;-74
2021/06/18 10:52:22;;;;;;;10.80;9.80;;;;;;;26.98;46.61;101274.91;5010998;28;20182;-71
2021/06/18 10:54:50;;;;;;;12.38;9.68;;;;;;;26.94;46.85;101266.25;5010748;28;20679;-71
2021/06/18 10:57:26;;;;;;;10.30;9.40;;;;;;;26.92;47.32;101268.13;5010578;28;20179;-68
2021/06/18 10:59:53;;;;;;;10.55;9.55;;;;;;;26.90;46.79;101272.56;4999264;28;20207;-69
2021/06/18 11:02:21;;;;;;;10.95;9.85;;;;;;;26.88;46.97;101266.53;4990161;28;20211;-69
2021/06/18 11:04:55;;;;;;;10.63;9.52;;;;;;;26.88;47.72;101265.66;4990632;28;20608;-68
2021/06/18 11:07:31;;;;;;;10.55;9.45;;;;;;;26.88;47.59;101268.28;4990727;28;20528;-70
2021/06/18 11:10:07;;;;;;;10.05;9.05;;;;;;;26.88;47.58;101263.03;5000738;28;20207;-69
2021/06/18 11:12:32;;;;;;;10.52;9.50;;;;;;;26.88;47.05;101266.53;5009931;28;20534;-68
2021/06/18 11:15:03;;;;;;;10.15;9.30;;;;;;;26.88;47.31;101271.78;5005063;28;20188;-69
2021/06/18 11:17:49;;;;;;;10.48;9.43;;;;;;;26.89;47.30;101275.28;4990948;28;20184;-69
2021/06/18 11:20:17;;;;;;;10.77;9.73;;;;;;;26.88;47.43;101269.16;4988721;28;20207;-69
2021/06/18 11:22:50;;;;;;;12.38;9.60;;;;;;;26.89;47.21;101265.59;4990562;28;20206;-70